Terminal Aerodrome Forecast
Issued by NWS

Home | Current Version | Previous Version | Text Only | Print | Product List | Glossary On
Versions: 1 2 3 4 5 6 7 8 9 10 11 12
047
FTUS44 KEPZ 080528
TAFLRU
TAF
KLRU 080528Z 0806/0906 32009KT P6SM OVC250
     FM081800 12010KT P6SM FEW250
     FM090100 22007KT P6SM SKC=

USA.gov is the U.S. government's official web portal to all federal, state and local government web resources and services.